createdAt,value
2022-08-24T00:01:58.658Z,99171.91
2022-08-24T00:04:26.347Z,99170.00
2022-08-24T00:06:55.605Z,99174.94
2022-08-24T00:09:22.996Z,99166.56
2022-08-24T00:11:50.485Z,99177.59
2022-08-24T00:14:18.518Z,99191.31
2022-08-24T00:16:46.143Z,99186.00
2022-08-24T00:19:13.966Z,99188.25
2022-08-24T00:21:41.375Z,99182.94
2022-08-24T00:24:09.691Z,99184.06
2022-08-24T00:26:37.054Z,99184.06
2022-08-24T00:29:07.630Z,99192.44
2022-08-24T00:31:35.351Z,99190.16
2022-08-24T00:34:03.169Z,99200.44
2022-08-24T00:36:30.507Z,99194.34
2022-08-24T00:38:57.828Z,99189.41
2022-08-24T00:41:25.400Z,99189.38
2022-08-24T00:44:04.840Z,99181.03
2022-08-24T00:46:44.461Z,99185.59
2022-08-24T00:49:22.198Z,99186.34
2022-08-24T00:52:04.598Z,99181.75
2022-08-24T00:54:37.028Z,99187.09
2022-08-24T00:57:10.342Z,99181.75
2022-08-24T00:59:43.301Z,99179.47
2022-08-24T01:02:16.990Z,99183.66
2022-08-24T01:04:56.307Z,99185.56
2022-08-24T01:07:29.720Z,99187.09
2022-08-24T01:10:00.427Z,99189.00
2022-08-24T01:12:32.131Z,99185.94
2022-08-24T01:15:02.493Z,99193.59
2022-08-24T01:17:48.489Z,99195.09
2022-08-24T01:20:15.987Z,99203.09
2022-08-24T01:23:13.438Z,99202.72
2022-08-24T01:25:44.367Z,99203.13
2022-08-24T01:28:16.918Z,99195.88
2022-08-24T01:30:50.745Z,99193.56
2022-08-24T01:33:26.933Z,99197.75
2022-08-24T01:36:32.213Z,99205.38
2022-08-24T01:39:06.449Z,99202.75
2022-08-24T01:41:33.805Z,99187.88
2022-08-24T01:44:02.486Z,99186.34
2022-08-24T01:46:29.875Z,99180.25
2022-08-24T01:48:58.888Z,99181.41
2022-08-24T01:51:31.399Z,99185.59
2022-08-24T01:54:03.291Z,99189.75
2022-08-24T01:56:33.026Z,99188.66
2022-08-24T01:59:01.166Z,99191.69
2022-08-24T02:01:31.139Z,99199.69
2022-08-24T02:04:04.577Z,99197.03
2022-08-24T02:06:33.055Z,99198.94
2022-08-24T02:09:00.811Z,99203.88
2022-08-24T02:11:28.644Z,99203.50
2022-08-24T02:13:56.022Z,99209.19
2022-08-24T02:16:24.685Z,99207.66
2022-08-24T02:18:51.997Z,99215.25
2022-08-24T02:21:19.293Z,99216.41
2022-08-24T02:23:48.034Z,99207.66
2022-08-24T02:26:15.538Z,99204.66
2022-08-24T02:28:43.055Z,99211.50
2022-08-24T02:31:12.857Z,99213.72
2022-08-24T02:33:41.942Z,99217.53
2022-08-24T02:36:25.454Z,99221.38
2022-08-24T02:38:55.758Z,99221.34
2022-08-24T02:41:26.915Z,99221.72
2022-08-24T02:43:56.566Z,99225.16
2022-08-24T02:46:27.282Z,99234.34
2022-08-24T02:48:57.590Z,99232.03
2022-08-24T02:51:43.956Z,99243.47
2022-08-24T02:54:18.167Z,99238.50
2022-08-24T02:56:48.366Z,99236.97
2022-08-24T02:59:17.149Z,99230.88
2022-08-24T03:01:45.240Z,99234.66
2022-08-24T03:04:13.720Z,99235.00
2022-08-24T03:06:41.520Z,99236.53
2022-08-24T03:09:09.263Z,99227.63
2022-08-24T03:11:37.242Z,99232.97
2022-08-24T03:14:04.682Z,99241.63
2022-08-24T03:16:33.251Z,99240.53
2022-08-24T03:19:01.836Z,99244.66
2022-08-24T03:21:33.469Z,99245.91
2022-08-24T03:24:04.278Z,99242.88
2022-08-24T03:26:32.040Z,99230.31
2022-08-24T03:28:59.930Z,99232.94
2022-08-24T03:31:27.858Z,99245.56
2022-08-24T03:33:55.139Z,99243.25
2022-08-24T03:36:22.888Z,99240.91
2022-08-24T03:38:50.602Z,99244.94
2022-08-24T03:41:19.080Z,99243.75
2022-08-24T03:43:46.507Z,99239.09
2022-08-24T03:46:19.239Z,99240.66
2022-08-24T03:48:49.065Z,99233.94
2022-08-24T03:51:23.097Z,99239.84
2022-08-24T03:53:52.997Z,99241.09
2022-08-24T03:56:23.304Z,99228.56
2022-08-24T03:58:52.400Z,99224.78
2022-08-24T04:01:20.436Z,99235.41
2022-08-24T04:03:49.879Z,99237.59
2022-08-24T04:06:19.929Z,99237.38
2022-08-24T04:08:47.503Z,99239.22
2022-08-24T04:11:18.126Z,99244.97
2022-08-24T04:13:46.799Z,99249.13
2022-08-24T04:16:17.781Z,99254.94
2022-08-24T04:18:46.424Z,99251.78
2022-08-24T04:21:23.292Z,99248.78
2022-08-24T04:23:52.209Z,99247.25
2022-08-24T04:26:35.068Z,99251.47
2022-08-24T04:29:12.825Z,99251.88
2022-08-24T04:31:44.603Z,99249.97
2022-08-24T04:34:14.184Z,99249.22
2022-08-24T04:36:43.806Z,99250.06
2022-08-24T04:39:11.555Z,99254.63
2022-08-24T04:41:57.326Z,99254.97
2022-08-24T04:44:32.610Z,99266.00
2022-08-24T04:47:01.530Z,99263.97
2022-08-24T04:49:29.940Z,99271.56
2022-08-24T04:51:57.320Z,99278.03
2022-08-24T04:54:25.278Z,99271.53
2022-08-24T04:57:27.915Z,99277.63
2022-08-24T04:59:57.562Z,99283.75
2022-08-24T05:02:25.048Z,99286.75
2022-08-24T05:04:55.342Z,99283.72
2022-08-24T05:07:22.704Z,99281.09
2022-08-24T05:09:52.375Z,99276.09
2022-08-24T05:12:20.963Z,99281.06
2022-08-24T05:14:56.573Z,99282.22
2022-08-24T05:17:24.139Z,99277.31
2022-08-24T05:19:51.415Z,99289.13
2022-08-24T05:22:18.818Z,99282.22
2022-08-24T05:24:51.086Z,99284.53
2022-08-24T05:27:19.502Z,99290.25
2022-08-24T05:29:47.701Z,99289.88
2022-08-24T05:32:18.021Z,99297.50
2022-08-24T05:34:45.376Z,99293.69
2022-08-24T05:37:12.751Z,99302.09
2022-08-24T05:40:09.255Z,99292.59
2022-08-24T05:42:39.853Z,99287.25
2022-08-24T05:45:08.619Z,99301.41
2022-08-24T05:47:36.008Z,99296.47
2022-08-24T05:50:11.516Z,99299.53
2022-08-24T05:52:38.915Z,99299.91
2022-08-24T05:55:07.487Z,99294.19
2022-08-24T05:57:37.164Z,99290.75
2022-08-24T06:00:16.661Z,99300.66
2022-08-24T06:02:46.197Z,99294.94
2022-08-24T06:05:14.226Z,99289.97
2022-08-24T06:07:44.135Z,99295.31
2022-08-24T06:10:35.497Z,99291.88
2022-08-24T06:12:59.579Z,99285.00
2022-08-24T06:15:27.715Z,99280.78
2022-08-24T06:17:54.978Z,99288.81
2022-08-24T06:20:22.437Z,99282.31
2022-08-24T06:22:52.789Z,99284.53
2022-08-24T06:25:39.457Z,99283.06
2022-08-24T06:28:06.888Z,99279.09
2022-08-24T06:30:36.051Z,99279.78
2022-08-24T06:33:15.818Z,99283.53
2022-08-24T06:35:48.043Z,99290.28
2022-08-24T06:38:15.518Z,99296.03
2022-08-24T06:40:45.631Z,99302.25
2022-08-24T06:43:13.663Z,99299.22
2022-08-24T06:45:57.868Z,99299.72
2022-08-24T06:48:31.121Z,99305.19
2022-08-24T06:51:00.111Z,99309.13
2022-08-24T06:53:28.983Z,99308.44
2022-08-24T06:56:01.493Z,99304.94
2022-08-24T06:58:33.129Z,99299.94
2022-08-24T07:01:10.396Z,99300.63
2022-08-24T07:03:38.420Z,99301.34
2022-08-24T07:06:28.877Z,99306.56
2022-08-24T07:09:00.156Z,99300.88
2022-08-24T07:11:27.963Z,99304.19
2022-08-24T07:13:55.200Z,99299.25
2022-08-24T07:16:23.705Z,99304.75
2022-08-24T07:18:54.788Z,99305.38
2022-08-24T07:21:23.066Z,99317.69
2022-08-24T07:23:56.568Z,99313.97
2022-08-24T07:26:27.253Z,99315.44
2022-08-24T07:29:06.411Z,99315.47
2022-08-24T07:31:43.329Z,99318.56
2022-08-24T07:34:16.956Z,99314.63
2022-08-24T07:36:48.407Z,99316.59
2022-08-24T07:39:15.781Z,99306.78
2022-08-24T07:44:32.955Z,99306.22
2022-08-24T07:47:15.074Z,99318.69
2022-08-24T07:49:49.610Z,99318.00
2022-08-24T07:52:17.007Z,99318.56
2022-08-24T07:54:45.513Z,99315.59
2022-08-24T07:57:13.141Z,99316.72
2022-08-24T07:59:40.763Z,99312.16
2022-08-24T08:02:11.297Z,99314.03
2022-08-24T08:04:40.010Z,99313.75
2022-08-24T08:07:08.309Z,99308.63
2022-08-24T08:09:38.365Z,99312.25
2022-08-24T08:12:06.598Z,99301.34
2022-08-24T08:14:34.404Z,99292.38
2022-08-24T08:17:02.043Z,99311.34
2022-08-24T08:19:29.746Z,99303.59
2022-08-24T08:22:16.222Z,99300.66
2022-08-24T08:25:13.068Z,99299.47
2022-08-24T08:27:40.670Z,99303.41
2022-08-24T08:30:08.547Z,99305.28
2022-08-24T08:32:36.872Z,99306.00
2022-08-24T08:35:05.017Z,99315.28
2022-08-24T08:40:07.777Z,99308.59
2022-08-24T08:43:04.046Z,99309.34
2022-08-24T08:45:59.977Z,99293.59
2022-08-24T08:49:08.731Z,99289.81
2022-08-24T08:52:00.551Z,99289.63
2022-08-24T08:54:49.638Z,99287.31
2022-08-24T08:57:39.540Z,99281.66
2022-08-24T09:00:15.734Z,99292.16
2022-08-24T09:03:23.194Z,99296.72
2022-08-24T09:06:32.854Z,99293.66
2022-08-24T09:09:09.453Z,99288.66
2022-08-24T09:12:00.656Z,99287.31
2022-08-24T09:14:46.798Z,99298.13
2022-08-24T09:17:38.623Z,99298.03
2022-08-24T09:20:39.994Z,99301.09
2022-08-24T09:23:21.060Z,99307.97
2022-08-24T09:26:05.931Z,99301.81
2022-08-24T09:29:03.830Z,99306.94
2022-08-24T09:32:08.420Z,99297.81
2022-08-24T09:34:59.970Z,99287.06
2022-08-24T09:38:04.399Z,99277.69
2022-08-24T09:40:37.247Z,99267.97
2022-08-24T09:43:16.416Z,99261.91
2022-08-24T09:46:02.665Z,99261.69
2022-08-24T09:48:50.946Z,99244.19
2022-08-24T09:51:55.444Z,99242.13
2022-08-24T09:55:00.891Z,99235.19
2022-08-24T09:57:59.790Z,99229.97
2022-08-24T10:01:12.338Z,99221.31
2022-08-24T10:04:17.099Z,99222.63
2022-08-24T10:06:44.431Z,99221.22
2022-08-24T10:09:37.682Z,99212.09
2022-08-24T10:12:22.628Z,99206.38
2022-08-24T10:14:56.245Z,99196.63
2022-08-24T10:17:39.081Z,99180.56
2022-08-24T10:20:29.513Z,99175.41
2022-08-24T10:23:05.285Z,99173.00
2022-08-24T10:25:47.784Z,99183.72
2022-08-24T10:28:30.310Z,99187.69
2022-08-24T10:31:12.631Z,99199.78
2022-08-24T10:34:10.867Z,99201.41
2022-08-24T10:37:16.310Z,99195.06
2022-08-24T10:40:06.282Z,99205.41
2022-08-24T10:43:07.443Z,99198.34
2022-08-24T10:45:59.539Z,99209.34
2022-08-24T10:48:33.169Z,99218.88
2022-08-24T10:51:19.810Z,99207.13
2022-08-24T10:53:53.560Z,99196.78
2022-08-24T10:56:30.507Z,99192.34
2022-08-24T10:59:25.617Z,99178.66
2022-08-24T11:02:34.024Z,99183.69
2022-08-24T11:05:05.888Z,99193.91
2022-08-24T11:07:33.887Z,99184.56
2022-08-24T11:10:06.600Z,99173.81
2022-08-24T11:12:43.250Z,99174.53
2022-08-24T11:15:23.933Z,99183.47
2022-08-24T11:18:02.654Z,99179.34
2022-08-24T11:20:33.235Z,99168.59
2022-08-24T11:23:30.979Z,99164.88
2022-08-24T11:26:07.974Z,99170.16
2022-08-24T11:28:41.053Z,99167.88
2022-08-24T11:31:14.678Z,99161.34
2022-08-24T11:34:00.457Z,99160.50
2022-08-24T11:36:32.664Z,99160.66
2022-08-24T11:39:36.310Z,99165.19
2022-08-24T11:42:41.191Z,99154.25
2022-08-24T11:45:18.283Z,99144.34
2022-08-24T11:47:57.855Z,99155.41
2022-08-24T11:50:42.053Z,99152.72
2022-08-24T11:56:25.581Z,99163.28
2022-08-24T11:59:00.953Z,99159.34
2022-08-24T12:01:51.497Z,99153.44
2022-08-24T12:04:20.198Z,99159.19
2022-08-24T12:06:59.095Z,99171.22
2022-08-24T12:09:26.377Z,99159.16
2022-08-24T12:12:09.868Z,99169.00
2022-08-24T12:14:49.005Z,99162.69
2022-08-24T12:17:19.210Z,99162.28
2022-08-24T12:19:56.368Z,99168.22
2022-08-24T12:22:25.638Z,99161.69
2022-08-24T12:24:56.323Z,99157.56
2022-08-24T12:27:30.337Z,99158.09
2022-08-24T12:30:14.121Z,99152.38
2022-08-24T12:33:01.363Z,99144.16
2022-08-24T12:35:34.699Z,99152.16
2022-08-24T12:38:12.190Z,99147.53
2022-08-24T12:40:53.991Z,99146.53
2022-08-24T12:43:32.016Z,99144.59
2022-08-24T12:46:01.502Z,99145.28
2022-08-24T12:48:34.449Z,99138.06
2022-08-24T12:51:07.525Z,99134.72
2022-08-24T12:54:06.282Z,99128.38
2022-08-24T12:57:07.098Z,99129.53
2022-08-24T12:59:48.620Z,99133.34
2022-08-24T13:02:15.870Z,99125.38
2022-08-24T13:04:52.902Z,99119.31
2022-08-24T13:07:20.186Z,99115.06
2022-08-24T13:10:05.151Z,99115.53
2022-08-24T13:12:45.064Z,99112.44
2022-08-24T13:15:21.335Z,99110.63
2022-08-24T13:17:58.837Z,99110.22
2022-08-24T13:20:51.831Z,99104.88
2022-08-24T13:23:24.889Z,99094.75
2022-08-24T13:26:17.970Z,99099.53
2022-08-24T13:28:49.919Z,99099.53
2022-08-24T13:31:32.691Z,99097.34
2022-08-24T13:34:24.962Z,99089.56
2022-08-24T13:37:10.763Z,99085.41
2022-08-24T13:39:56.074Z,99082.19
2022-08-24T13:42:48.416Z,99083.09
2022-08-24T13:45:19.484Z,99083.28
2022-08-24T13:47:52.818Z,99091.47
2022-08-24T13:51:17.500Z,99073.06
2022-08-24T13:54:05.848Z,99069.72
2022-08-24T13:56:44.419Z,99064.38
2022-08-24T13:59:22.484Z,99069.22
2022-08-24T14:02:16.759Z,99068.72
2022-08-24T14:04:53.135Z,99076.84
2022-08-24T14:07:33.935Z,99067.91
2022-08-24T14:10:01.184Z,99076.94
2022-08-24T14:12:32.124Z,99079.38
2022-08-24T14:15:16.065Z,99074.03
2022-08-24T14:17:57.959Z,99073.47
2022-08-24T14:20:43.541Z,99072.63
2022-08-24T14:23:25.662Z,99074.78
2022-08-24T14:26:31.463Z,99074.88
2022-08-24T14:29:22.764Z,99079.06
2022-08-24T14:32:01.542Z,99076.84
2022-08-24T14:34:59.847Z,99071.06
2022-08-24T14:37:56.249Z,99068.69
2022-08-24T14:40:30.255Z,99068.84
2022-08-24T14:43:11.319Z,99068.19
2022-08-24T14:46:16.142Z,99062.84
2022-08-24T14:48:54.853Z,99072.06
2022-08-24T14:51:59.943Z,99068.06
2022-08-24T14:54:45.045Z,99053.41
2022-08-24T14:57:18.911Z,99048.63
2022-08-24T15:00:16.081Z,99056.53
2022-08-24T15:02:52.221Z,99056.19
2022-08-24T15:05:25.514Z,99054.28
2022-08-24T15:08:07.304Z,99062.63
2022-08-24T15:10:46.863Z,99044.75
2022-08-24T15:13:26.833Z,99042.47
2022-08-24T15:16:01.813Z,99039.13
2022-08-24T15:18:44.555Z,99040.94
2022-08-24T15:21:26.763Z,99042.91
2022-08-24T15:23:54.238Z,99050.97
2022-08-24T15:26:52.358Z,99048.13
2022-08-24T15:29:24.700Z,99056.91
2022-08-24T15:32:11.241Z,99056.88
2022-08-24T15:34:45.778Z,99060.81
2022-08-24T15:37:16.404Z,99057.63
2022-08-24T15:39:44.465Z,99062.66
2022-08-24T15:42:15.201Z,99067.72
2022-08-24T15:44:47.538Z,99068.28
2022-08-24T15:47:20.620Z,99061.22
2022-08-24T15:49:52.404Z,99058.44
2022-08-24T15:52:42.507Z,99066.69
2022-08-24T15:55:26.604Z,99072.19
2022-08-24T15:57:54.993Z,99077.69
2022-08-24T16:00:54.019Z,99078.44
2022-08-24T16:03:23.927Z,99073.66
2022-08-24T16:05:54.209Z,99071.56
2022-08-24T16:08:22.691Z,99086.16
2022-08-24T16:10:49.912Z,99089.00
2022-08-24T16:13:23.590Z,99092.88
2022-08-24T16:16:14.537Z,99097.69
2022-08-24T16:18:56.108Z,99091.94
2022-08-24T16:21:40.565Z,99086.72
2022-08-24T16:24:25.311Z,99098.78
2022-08-24T16:27:07.251Z,99101.16
2022-08-24T16:29:37.488Z,99106.78
2022-08-24T16:32:33.369Z,99114.13
2022-08-24T16:35:12.732Z,99116.38
2022-08-24T16:37:39.964Z,99110.81
2022-08-24T16:40:08.597Z,99111.69
2022-08-24T16:42:37.149Z,99114.16
2022-08-24T16:45:11.041Z,99109.00
2022-08-24T16:47:38.542Z,99107.91
2022-08-24T16:50:07.374Z,99111.16
2022-08-24T16:52:36.587Z,99110.19
2022-08-24T16:55:04.405Z,99104.38
2022-08-24T16:57:37.715Z,99113.88
2022-08-24T17:00:15.535Z,99115.28
2022-08-24T17:02:43.319Z,99119.91
2022-08-24T17:05:11.994Z,99128.69
2022-08-24T17:07:39.647Z,99127.47
2022-08-24T17:10:09.640Z,99144.94
2022-08-24T17:12:37.679Z,99148.84
2022-08-24T17:15:07.031Z,99148.94
2022-08-24T17:17:34.819Z,99147.66
2022-08-24T17:20:02.364Z,99153.91
2022-08-24T17:22:29.626Z,99160.78
2022-08-24T17:24:56.975Z,99164.38
2022-08-24T17:27:29.634Z,99161.44
2022-08-24T17:29:57.509Z,99166.06
2022-08-24T17:32:25.619Z,99160.47
2022-08-24T17:34:53.175Z,99163.34
2022-08-24T17:37:20.746Z,99160.84
2022-08-24T17:39:57.518Z,99161.38
2022-08-24T17:42:49.635Z,99170.88
2022-08-24T17:45:13.109Z,99167.28
2022-08-24T17:47:43.112Z,99176.00
2022-08-24T17:50:13.522Z,99181.16
2022-08-24T17:52:41.716Z,99190.44
2022-08-24T17:55:11.159Z,99188.00
2022-08-24T17:57:39.172Z,99177.94
2022-08-24T18:00:10.529Z,99180.06
2022-08-24T18:02:41.495Z,99165.06
2022-08-24T18:05:11.462Z,99163.53
2022-08-24T18:07:53.051Z,99169.66
2022-08-24T18:10:24.884Z,99175.31
2022-08-24T18:12:52.313Z,99174.44
2022-08-24T18:15:19.681Z,99173.69
2022-08-24T18:17:50.331Z,99171.94
2022-08-24T18:20:22.234Z,99163.88
2022-08-24T18:22:52.801Z,99165.84
2022-08-24T18:25:23.292Z,99173.72
2022-08-24T18:27:54.368Z,99168.19
2022-08-24T18:30:30.635Z,99169.72
2022-08-24T18:33:01.794Z,99170.13
2022-08-24T18:35:30.825Z,99167.38
2022-08-24T18:37:58.116Z,99171.69
2022-08-24T18:40:26.813Z,99161.09
2022-08-24T18:43:00.598Z,99165.94
2022-08-24T18:45:32.018Z,99157.38
2022-08-24T18:48:01.963Z,99154.34
2022-08-24T18:50:29.420Z,99167.97
2022-08-24T18:52:58.871Z,99178.56
2022-08-24T18:55:27.801Z,99185.97
2022-08-24T18:57:55.618Z,99187.88
2022-08-24T19:00:23.184Z,99179.75
2022-08-24T19:02:52.035Z,99180.91
2022-08-24T19:05:24.622Z,99177.53
2022-08-24T19:07:54.412Z,99176.19
2022-08-24T19:10:28.103Z,99179.19
2022-08-24T19:13:00.108Z,99184.50
2022-08-24T19:15:32.603Z,99175.50
2022-08-24T19:18:11.240Z,99161.34
2022-08-24T19:20:48.061Z,99152.91
2022-08-24T19:23:34.227Z,99158.59
2022-08-24T19:26:02.885Z,99177.47
2022-08-24T19:28:31.361Z,99179.47
2022-08-24T19:31:01.717Z,99180.31
2022-08-24T19:33:35.469Z,99191.50
2022-08-24T19:36:02.909Z,99197.81
2022-08-24T19:38:30.539Z,99195.47
2022-08-24T19:40:58.631Z,99201.75
2022-08-24T19:43:28.303Z,99199.00
2022-08-24T19:46:05.590Z,99198.38
2022-08-24T19:48:40.042Z,99208.91
2022-08-24T19:51:11.698Z,99205.25
2022-08-24T19:53:41.568Z,99209.88
2022-08-24T19:56:09.406Z,99214.69
2022-08-24T19:58:39.411Z,99218.75
2022-08-24T20:01:13.353Z,99214.50
2022-08-24T20:03:41.101Z,99215.06
2022-08-24T20:06:08.658Z,99216.22
2022-08-24T20:08:35.860Z,99224.16
2022-08-24T20:11:03.498Z,99231.00
2022-08-24T20:13:30.774Z,99241.72
2022-08-24T20:15:58.382Z,99236.34
2022-08-24T20:18:30.905Z,99249.59
2022-08-24T20:20:58.765Z,99253.34
2022-08-24T20:23:26.687Z,99263.72
2022-08-24T20:25:55.245Z,99258.84
2022-08-24T20:28:30.537Z,99262.84
2022-08-24T20:31:00.484Z,99257.47
2022-08-24T20:33:28.030Z,99263.69
2022-08-24T20:35:56.884Z,99268.31
2022-08-24T20:38:25.120Z,99259.31
2022-08-24T20:40:53.943Z,99253.91
2022-08-24T20:43:21.831Z,99254.69
2022-08-24T20:45:53.225Z,99253.16
2022-08-24T20:48:28.982Z,99258.81
2022-08-24T20:51:00.216Z,99259.25
2022-08-24T20:53:28.057Z,99254.94
2022-08-24T20:55:57.521Z,99248.66
2022-08-24T20:58:25.013Z,99241.06
2022-08-24T21:00:52.338Z,99242.63
2022-08-24T21:03:20.022Z,99241.59
2022-08-24T21:05:48.697Z,99236.94
2022-08-24T21:08:16.089Z,99238.16
2022-08-24T21:10:44.889Z,99234.03
2022-08-24T21:13:12.348Z,99244.50
2022-08-24T21:15:41.467Z,99243.47
2022-08-24T21:18:10.812Z,99229.66
2022-08-24T21:20:44.612Z,99223.88
2022-08-24T21:23:27.973Z,99217.78
2022-08-24T21:25:55.350Z,99219.06
2022-08-24T21:28:23.108Z,99218.09
2022-08-24T21:30:53.499Z,99216.16
2022-08-24T21:33:39.752Z,99211.97
2022-08-24T21:36:08.658Z,99216.53
2022-08-24T21:38:39.203Z,99219.47
2022-08-24T21:41:11.907Z,99220.31
2022-08-24T21:43:39.196Z,99213.78
2022-08-24T21:46:06.542Z,99209.91
2022-08-24T21:48:33.949Z,99202.06
2022-08-24T21:51:01.267Z,99197.88
2022-08-24T21:53:28.826Z,99202.78
2022-08-24T21:55:56.484Z,99198.25
2022-08-24T21:58:24.461Z,99185.97
2022-08-24T22:00:52.949Z,99186.63
2022-08-24T22:03:26.284Z,99178.94
2022-08-24T22:05:59.725Z,99176.56
2022-08-24T22:08:27.859Z,99185.47
2022-08-24T22:10:59.373Z,99185.38
2022-08-24T22:13:26.715Z,99181.78
2022-08-24T22:15:53.987Z,99189.88
2022-08-24T22:18:21.261Z,99185.84
2022-08-24T22:20:48.721Z,99186.50
2022-08-24T22:23:15.980Z,99188.91
2022-08-24T22:25:44.479Z,99182.81
2022-08-24T22:28:11.761Z,99180.59
2022-08-24T22:30:39.067Z,99187.19
2022-08-24T22:33:06.421Z,99179.59
2022-08-24T22:35:45.302Z,99194.06
2022-08-24T22:38:13.633Z,99193.59
2022-08-24T22:40:44.370Z,99188.00
2022-08-24T22:43:12.884Z,99184.00
2022-08-24T22:45:40.177Z,99177.03
2022-08-24T22:48:07.485Z,99177.06
2022-08-24T22:50:34.748Z,99171.34
2022-08-24T22:53:02.123Z,99171.06
2022-08-24T22:55:32.664Z,99180.34
2022-08-24T22:57:59.879Z,99180.84
2022-08-24T23:00:27.332Z,99183.03
2022-08-24T23:02:54.595Z,99191.13
2022-08-24T23:05:22.073Z,99205.28
2022-08-24T23:07:49.333Z,99211.91
2022-08-24T23:10:16.720Z,99226.09
2022-08-24T23:12:43.974Z,99224.16
2022-08-24T23:15:11.486Z,99212.22
2022-08-24T23:17:38.720Z,99207.44
2022-08-24T23:20:07.882Z,99197.44
2022-08-24T23:22:39.375Z,99190.75
2022-08-24T23:25:09.451Z,99176.09
2022-08-24T23:27:38.068Z,99174.97
2022-08-24T23:30:09.373Z,99178.91
2022-08-24T23:32:36.850Z,99179.25
2022-08-24T23:35:04.663Z,99180.94
2022-08-24T23:37:32.008Z,99168.69
2022-08-24T23:39:59.633Z,99157.00
2022-08-24T23:42:26.927Z,99168.81
2022-08-24T23:44:54.434Z,99169.66
2022-08-24T23:47:22.374Z,99169.59
2022-08-24T23:49:50.875Z,99175.25
2022-08-24T23:52:28.320Z,99168.06
2022-08-24T23:55:07.099Z,99165.84
2022-08-24T23:57:44.387Z,99173.28
